Time;durP1;ratioP1;P1;durP2;ratioP2;P2;SDS_P1;SDS_P2;PMS_P1;PMS_P2;Temp;Humidity;BMP_temperature;BMP_pressure;BME280_temperature;BME280_humidity;BME280_pressure;Samples;Min_cycle;Max_cycle;Signal;HPM_P1;HPM_P2
2021/11/29 00:01:13;;;;;;;8.48;7.57;;;1.40;99.90;;;;;;5011383;28;20621;-93
2021/11/29 00:03:40;;;;;;;9.75;6.95;;;1.40;99.90;;;;;;5012000;28;20218;-92
2021/11/29 00:06:08;;;;;;;8.95;6.95;;;1.40;99.90;;;;;;5011150;28;21040;-92
2021/11/29 00:08:35;;;;;;;8.25;6.88;;;1.40;99.90;;;;;;5011806;28;20209;-92
2021/11/29 00:11:02;;;;;;;8.15;7.00;;;1.40;99.90;;;;;;5011254;28;20237;-92
2021/11/29 00:13:29;;;;;;;7.63;6.43;;;1.40;99.90;;;;;;5011030;28;20241;-93
2021/11/29 00:15:56;;;;;;;9.07;7.80;;;1.40;99.90;;;;;;5011970;28;20195;-92
2021/11/29 00:18:23;;;;;;;10.02;7.10;;;1.40;99.90;;;;;;5011130;28;20294;-93
2021/11/29 00:20:50;;;;;;;9.60;7.68;;;1.40;99.90;;;;;;5011068;28;20677;-91
2021/11/29 00:23:18;;;;;;;7.97;7.18;;;1.40;99.90;;;;;;5011347;28;20210;-92
2021/11/29 00:25:46;;;;;;;9.38;7.90;;;1.40;99.90;;;;;;5011152;28;20691;-92
2021/11/29 00:28:14;;;;;;;10.02;7.97;;;1.40;99.90;;;;;;5010680;28;20491;-92
2021/11/29 00:30:41;;;;;;;8.63;7.72;;;1.40;99.90;;;;;;5011372;28;20253;-92
2021/11/29 00:33:09;;;;;;;10.38;7.90;;;1.40;99.90;;;;;;5010447;28;20222;-92
2021/11/29 00:35:36;;;;;;;8.95;7.43;;;1.40;99.90;;;;;;5011626;28;20213;-92
2021/11/29 00:38:03;;;;;;;8.95;8.05;;;1.40;99.90;;;;;;4992716;28;20203;-91
2021/11/29 00:40:31;;;;;;;10.35;8.00;;;1.40;99.90;;;;;;4992821;28;20230;-91
2021/11/29 00:42:58;;;;;;;11.55;8.90;;;1.40;99.90;;;;;;4992698;28;20210;-91
2021/11/29 00:45:25;;;;;;;9.43;7.95;;;1.30;99.90;;;;;;4992734;28;20218;-92
2021/11/29 00:47:52;;;;;;;11.15;8.93;;;1.30;99.90;;;;;;4992912;28;20215;-91
2021/11/29 00:50:20;;;;;;;9.98;8.65;;;1.30;99.90;;;;;;4993338;28;20231;-92
2021/11/29 00:52:47;;;;;;;11.32;8.45;;;1.30;99.90;;;;;;4992594;28;20218;-90
2021/11/29 00:55:16;;;;;;;9.75;8.45;;;1.30;99.90;;;;;;4994026;28;20207;-89
2021/11/29 01:00:15;;;;;;;11.57;8.77;;;1.30;99.90;;;;;;5073417;22;20226;-93
2021/11/29 01:02:43;;;;;;;12.13;9.35;;;1.30;99.90;;;;;;5053701;28;20212;-93
2021/11/29 01:05:11;;;;;;;11.75;8.98;;;1.30;99.90;;;;;;5055386;28;20242;-92
2021/11/29 01:07:38;;;;;;;11.65;8.90;;;1.40;99.90;;;;;;5057064;28;20206;-92
2021/11/29 01:10:12;;;;;;;13.05;9.80;;;1.30;99.90;;;;;;5052952;28;20313;-92
2021/11/29 01:12:39;;;;;;;12.52;9.90;;;1.40;99.90;;;;;;5048670;28;20226;-92
2021/11/29 01:15:10;;;;;;;13.02;9.57;;;1.30;99.90;;;;;;5047840;28;20241;-91
2021/11/29 01:17:40;;;;;;;10.35;8.65;;;1.30;99.90;;;;;;5049794;28;20209;-91
2021/11/29 01:20:08;;;;;;;10.55;7.90;;;1.30;99.90;;;;;;5070165;22;20225;-75
2021/11/29 01:22:36;;;;;;;12.63;9.40;;;1.30;99.90;;;;;;5031605;28;20205;-76
2021/11/29 01:25:02;;;;;;;10.00;8.40;;;1.20;99.90;;;;;;5032529;28;20202;-76
2021/11/29 01:27:29;;;;;;;11.27;8.70;;;1.20;99.90;;;;;;5032233;28;20225;-76
2021/11/29 01:29:56;;;;;;;10.00;8.40;;;1.30;99.90;;;;;;5032240;28;20201;-76
2021/11/29 01:32:23;;;;;;;11.93;9.45;;;1.30;99.90;;;;;;5031887;28;20581;-76
2021/11/29 01:34:51;;;;;;;11.32;9.02;;;1.30;99.90;;;;;;5031911;28;20225;-75
2021/11/29 01:37:18;;;;;;;13.80;9.18;;;1.30;99.90;;;;;;5032273;28;20228;-75
2021/11/29 01:39:45;;;;;;;14.15;9.77;;;1.30;99.90;;;;;;5032015;28;20210;-76
2021/11/29 01:42:11;;;;;;;12.80;9.45;;;1.30;99.90;;;;;;5031876;28;20228;-76
2021/11/29 01:44:38;;;;;;;12.40;10.02;;;1.40;99.90;;;;;;5031873;28;20198;-76
2021/11/29 01:47:05;;;;;;;14.07;10.57;;;1.30;99.90;;;;;;5032144;28;20221;-76
2021/11/29 01:49:32;;;;;;;12.32;9.32;;;1.30;99.90;;;;;;5031949;28;20227;-75
2021/11/29 01:52:00;;;;;;;11.75;9.65;;;1.30;99.90;;;;;;5031390;28;20297;-75
2021/11/29 01:54:27;;;;;;;13.02;10.68;;;1.30;99.90;;;;;;5031713;28;20222;-76
2021/11/29 01:56:54;;;;;;;13.20;9.93;;;1.30;99.90;;;;;;5031965;28;20312;-76
2021/11/29 01:59:21;;;;;;;15.15;10.20;;;1.30;99.90;;;;;;5031836;28;20205;-75
2021/11/29 02:01:48;;;;;;;14.65;10.25;;;1.30;99.90;;;;;;5031060;28;20201;-76
2021/11/29 02:04:15;;;;;;;13.48;9.80;;;1.20;99.90;;;;;;5031850;28;20358;-75
2021/11/29 02:06:42;;;;;;;14.20;10.10;;;1.20;99.90;;;;;;5031448;28;20218;-76
2021/11/29 02:09:11;;;;;;;14.85;10.82;;;1.20;99.90;;;;;;5031672;28;20212;-76
2021/11/29 02:11:39;;;;;;;15.27;10.90;;;1.20;99.90;;;;;;5030967;28;20696;-76
2021/11/29 02:14:07;;;;;;;14.18;10.43;;;1.20;99.90;;;;;;5031459;28;20225;-76
2021/11/29 02:16:34;;;;;;;15.15;10.88;;;1.20;99.90;;;;;;5031231;28;20226;-76
2021/11/29 02:19:01;;;;;;;16.30;11.48;;;1.20;99.90;;;;;;5031460;28;20209;-76
2021/11/29 02:21:31;;;;;;;14.20;11.77;;;1.20;99.90;;;;;;5030270;28;20701;-76
2021/11/29 02:24:02;;;;;;;18.08;12.40;;;1.30;99.90;;;;;;5031353;28;20585;-76
2021/11/29 02:26:32;;;;;;;18.98;13.50;;;1.30;99.90;;;;;;5031409;28;20307;-76
2021/11/29 02:29:01;;;;;;;18.33;13.00;;;1.20;99.90;;;;;;5031040;28;20213;-76
2021/11/29 02:31:32;;;;;;;16.63;12.20;;;1.20;99.90;;;;;;5030870;28;20213;-76
2021/11/29 02:33:59;;;;;;;17.42;12.07;;;1.20;99.90;;;;;;5030965;28;20599;-76
2021/11/29 02:36:26;;;;;;;15.57;11.95;;;1.20;99.90;;;;;;5031123;28;20232;-75
2021/11/29 02:38:54;;;;;;;16.80;13.10;;;1.20;99.90;;;;;;5030825;28;20608;-76
2021/11/29 02:41:21;;;;;;;21.40;12.48;;;1.20;99.90;;;;;;5030664;28;20624;-75
2021/11/29 02:43:48;;;;;;;18.50;13.80;;;1.10;99.90;;;;;;5030640;28;20193;-75
2021/11/29 02:46:15;;;;;;;19.23;13.98;;;1.10;99.90;;;;;;5030992;28;20309;-75
2021/11/29 02:48:44;;;;;;;17.70;12.57;;;1.10;99.90;;;;;;5030897;28;20209;-75
2021/11/29 02:51:23;;;;;;;15.05;12.27;;;1.10;99.90;;;;;;5030285;28;20224;-76
2021/11/29 02:53:52;;;;;;;19.20;14.60;;;1.10;99.90;;;;;;5030870;28;20218;-75
2021/11/29 02:56:20;;;;;;;17.73;12.73;;;1.10;99.90;;;;;;5030661;28;20209;-75
2021/11/29 02:58:47;;;;;;;17.80;12.82;;;1.10;99.90;;;;;;5030612;28;20664;-75
2021/11/29 03:01:14;;;;;;;16.75;12.77;;;1.10;99.90;;;;;;5030212;28;20208;-75
2021/11/29 03:03:48;;;;;;;17.60;13.13;;;1.10;99.90;;;;;;5030709;28;20661;-76
2021/11/29 03:06:15;;;;;;;21.17;14.50;;;1.10;99.90;;;;;;5030885;28;20205;-75
2021/11/29 03:08:43;;;;;;;18.13;13.68;;;1.10;99.90;;;;;;5030612;28;20213;-75
2021/11/29 03:11:10;;;;;;;17.45;12.65;;;1.10;99.90;;;;;;5030213;28;20205;-75
2021/11/29 03:13:38;;;;;;;17.50;12.93;;;1.10;99.90;;;;;;5030664;28;20202;-75
2021/11/29 03:16:05;;;;;;;16.27;11.77;;;1.10;99.90;;;;;;5030828;28;20240;-75
2021/11/29 03:18:33;;;;;;;17.30;12.57;;;1.10;99.90;;;;;;5030408;28;20209;-75
2021/11/29 03:21:00;;;;;;;18.38;12.90;;;1.10;99.90;;;;;;5029888;28;20209;-75
2021/11/29 03:23:27;;;;;;;19.38;13.88;;;1.10;99.90;;;;;;5030446;28;20209;-75
2021/11/29 03:25:54;;;;;;;21.80;13.85;;;1.10;99.90;;;;;;5030450;28;20695;-75
2021/11/29 03:28:21;;;;;;;19.05;13.48;;;1.10;99.90;;;;;;5030149;28;20229;-75
2021/11/29 03:30:49;;;;;;;17.17;13.90;;;1.10;99.90;;;;;;5030333;28;20228;-76
2021/11/29 03:33:16;;;;;;;19.65;13.13;;;1.10;99.90;;;;;;5030203;28;20210;-75
2021/11/29 03:35:43;;;;;;;19.75;14.07;;;1.10;99.90;;;;;;5034429;28;20218;-75
2021/11/29 03:38:10;;;;;;;21.85;13.40;;;1.10;99.90;;;;;;5034605;28;20224;-75
2021/11/29 03:40:37;;;;;;;17.50;11.75;;;1.10;99.90;;;;;;5034303;28;20205;-75
2021/11/29 03:43:05;;;;;;;18.45;13.35;;;1.10;99.90;;;;;;5033864;28;20213;-75
2021/11/29 03:45:32;;;;;;;18.05;12.95;;;1.10;99.90;;;;;;5034193;28;20205;-75
2021/11/29 03:48:00;;;;;;;18.33;13.85;;;1.10;99.90;;;;;;5034115;28;20230;-75
2021/11/29 03:50:27;;;;;;;19.27;13.00;;;1.10;99.90;;;;;;5034101;28;20206;-76
2021/11/29 03:52:54;;;;;;;17.77;12.77;;;1.10;99.90;;;;;;5033639;28;20198;-75
2021/11/29 03:55:21;;;;;;;17.35;13.10;;;1.00;99.90;;;;;;5034361;28;20581;-76
2021/11/29 03:57:48;;;;;;;20.42;13.82;;;1.00;99.90;;;;;;5033919;28;20636;-76
2021/11/29 04:00:15;;;;;;;19.20;12.90;;;1.00;99.90;;;;;;5034173;28;20224;-75
2021/11/29 04:02:42;;;;;;;17.40;13.30;;;1.00;99.90;;;;;;5033464;28;20202;-76
2021/11/29 04:05:11;;;;;;;19.15;12.93;;;1.00;99.90;;;;;;5034328;28;20198;-75
2021/11/29 04:07:38;;;;;;;18.33;12.85;;;1.00;99.90;;;;;;5033689;28;20229;-75
2021/11/29 04:10:06;;;;;;;17.35;12.63;;;1.00;99.90;;;;;;5034104;28;20198;-75
2021/11/29 04:12:33;;;;;;;19.67;13.70;;;1.00;99.90;;;;;;5033218;28;20206;-75
2021/11/29 04:14:59;;;;;;;20.73;13.77;;;1.00;99.90;;;;;;5033759;28;20225;-76
2021/11/29 04:17:26;;;;;;;18.17;12.15;;;1.00;99.90;;;;;;5033644;28;20226;-76
2021/11/29 04:19:53;;;;;;;18.17;13.18;;;1.00;99.90;;;;;;5033766;28;20202;-76
2021/11/29 04:22:22;;;;;;;21.35;13.18;;;1.00;99.90;;;;;;5033329;28;20248;-76
2021/11/29 04:24:49;;;;;;;17.30;12.88;;;1.00;99.90;;;;;;5033532;28;20288;-76
2021/11/29 04:27:16;;;;;;;20.73;14.10;;;1.00;99.90;;;;;;5033664;28;20222;-76
2021/11/29 04:29:45;;;;;;;17.15;12.50;;;1.10;99.90;;;;;;5033064;28;20661;-76
2021/11/29 04:32:12;;;;;;;17.83;12.98;;;1.10;99.90;;;;;;5032485;28;20681;-76
2021/11/29 04:34:40;;;;;;;17.17;12.23;;;1.10;99.90;;;;;;5032384;28;20269;-77
2021/11/29 04:37:07;;;;;;;20.15;13.73;;;1.10;99.90;;;;;;5031853;28;20597;-76
2021/11/29 04:39:36;;;;;;;18.05;13.88;;;1.10;99.90;;;;;;5032310;28;20665;-76
2021/11/29 04:42:03;;;;;;;20.85;14.70;;;1.10;99.90;;;;;;5029624;28;20632;-75
2021/11/29 04:44:30;;;;;;;17.52;12.95;;;1.20;99.90;;;;;;5032289;28;20587;-76
2021/11/29 04:46:57;;;;;;;21.20;13.57;;;1.10;99.90;;;;;;5032369;28;20240;-75
2021/11/29 04:49:24;;;;;;;19.58;13.48;;;1.20;99.90;;;;;;5031870;28;20716;-74
2021/11/29 04:51:51;;;;;;;20.13;14.20;;;1.20;99.90;;;;;;5031385;28;20271;-74
2021/11/29 04:54:17;;;;;;;22.38;14.57;;;1.20;99.90;;;;;;5031758;28;20589;-73
2021/11/29 04:56:46;;;;;;;21.05;13.75;;;1.20;99.90;;;;;;5031291;28;20304;-74
2021/11/29 04:59:12;;;;;;;16.70;13.05;;;1.20;99.90;;;;;;5032072;28;20196;-74
2021/11/29 05:01:39;;;;;;;18.90;13.50;;;1.20;99.90;;;;;;5031008;28;20198;-74
2021/11/29 05:04:06;;;;;;;18.02;12.85;;;1.20;99.90;;;;;;5032558;28;20627;-74
2021/11/29 05:06:36;;;;;;;18.25;12.60;;;1.20;99.90;;;;;;5031991;28;20225;-74
2021/11/29 05:09:03;;;;;;;15.50;12.23;;;1.20;99.90;;;;;;5032016;28;20842;-74
2021/11/29 05:11:30;;;;;;;16.67;13.07;;;1.20;99.90;;;;;;5032351;28;20202;-74
2021/11/29 05:13:58;;;;;;;17.85;12.23;;;1.10;99.90;;;;;;5034143;28;20208;-73
2021/11/29 05:16:25;;;;;;;21.02;12.45;;;1.10;99.90;;;;;;5034354;28;20577;-73
2021/11/29 05:18:51;;;;;;;16.65;11.73;;;1.10;99.90;;;;;;5035704;28;20206;-73
2021/11/29 05:21:19;;;;;;;18.55;12.45;;;1.20;99.90;;;;;;5035193;28;20210;-74
2021/11/29 05:23:47;;;;;;;20.92;12.60;;;1.20;99.90;;;;;;5032282;28;20202;-73
2021/11/29 05:26:14;;;;;;;17.55;12.65;;;1.20;99.90;;;;;;5032616;28;20233;-74
2021/11/29 05:28:41;;;;;;;15.55;11.23;;;1.20;99.90;;;;;;5032476;28;20209;-74
2021/11/29 05:31:09;;;;;;;18.02;12.65;;;1.20;99.90;;;;;;5032073;28;20198;-74
2021/11/29 05:33:36;;;;;;;19.25;11.57;;;1.20;99.90;;;;;;5032092;28;20212;-74
2021/11/29 05:36:03;;;;;;;17.00;11.10;;;1.20;99.90;;;;;;5031971;28;20597;-74
2021/11/29 05:38:30;;;;;;;16.05;10.70;;;1.20;99.90;;;;;;5031865;28;20218;-74
2021/11/29 05:40:57;;;;;;;15.95;11.05;;;1.20;99.90;;;;;;5031189;28;20585;-74
2021/11/29 05:43:24;;;;;;;18.02;12.00;;;1.20;99.90;;;;;;5032038;28;20205;-74
2021/11/29 05:45:50;;;;;;;17.85;12.18;;;1.20;99.90;;;;;;5031669;28;20677;-74
2021/11/29 05:48:18;;;;;;;20.05;11.52;;;1.20;99.90;;;;;;5031811;28;20222;-74
2021/11/29 05:50:46;;;;;;;19.73;12.95;;;1.20;99.90;;;;;;5031127;28;20201;-74
2021/11/29 05:53:13;;;;;;;16.88;11.88;;;1.20;99.90;;;;;;5031712;28;20197;-74
2021/11/29 05:55:39;;;;;;;23.80;12.68;;;1.20;99.90;;;;;;5031352;28;20222;-74
2021/11/29 05:58:06;;;;;;;14.85;11.63;;;1.20;99.90;;;;;;5031220;28;20222;-74
2021/11/29 06:00:33;;;;;;;19.70;12.60;;;1.10;99.90;;;;;;5031740;28;20208;-74
2021/11/29 06:03:00;;;;;;;17.70;12.32;;;1.10;99.90;;;;;;5031074;28;20217;-74
2021/11/29 06:05:28;;;;;;;16.52;13.07;;;1.10;99.90;;;;;;5031515;28;20229;-74
2021/11/29 06:07:54;;;;;;;19.27;12.75;;;1.10;99.90;;;;;;5031886;28;20225;-75
2021/11/29 06:10:21;;;;;;;16.02;11.23;;;1.10;99.90;;;;;;5031499;28;20201;-74
2021/11/29 06:12:48;;;;;;;15.60;11.00;;;1.10;99.90;;;;;;5030983;28;20198;-74
2021/11/29 06:15:16;;;;;;;16.40;10.80;;;1.10;99.90;;;;;;5031471;28;20704;-74
2021/11/29 06:17:43;;;;;;;17.60;10.55;;;1.10;99.90;;;;;;5031056;28;20222;-74
2021/11/29 06:20:12;;;;;;;16.70;10.40;;;1.10;99.90;;;;;;5031541;28;20212;-74
2021/11/29 06:22:40;;;;;;;16.52;10.38;;;1.10;99.90;;;;;;5030708;28;20213;-74
2021/11/29 06:25:08;;;;;;;15.70;9.68;;;1.10;99.90;;;;;;5030975;28;20193;-74
2021/11/29 06:27:34;;;;;;;14.77;9.45;;;1.10;99.90;;;;;;5030816;28;20376;-74
2021/11/29 06:30:01;;;;;;;16.23;9.70;;;1.00;99.90;;;;;;5030427;28;20190;-74
2021/11/29 06:32:28;;;;;;;15.55;10.32;;;1.00;99.90;;;;;;5029892;28;20570;-74
2021/11/29 06:34:55;;;;;;;14.38;10.38;;;1.00;99.90;;;;;;5030433;28;20216;-74
2021/11/29 06:37:26;;;;;;;13.60;10.23;;;1.00;99.90;;;;;;5030350;28;20292;-74
2021/11/29 06:39:57;;;;;;;14.57;9.48;;;1.00;99.90;;;;;;5027658;28;20652;-74
2021/11/29 06:42:24;;;;;;;11.95;8.40;;;1.10;99.90;;;;;;5030440;28;20202;-74
2021/11/29 06:44:51;;;;;;;13.90;9.50;;;1.10;99.90;;;;;;5029936;28;20209;-74
2021/11/29 06:47:17;;;;;;;14.45;9.23;;;1.10;99.90;;;;;;5030622;28;20655;-74
2021/11/29 06:49:44;;;;;;;14.23;10.00;;;1.00;99.90;;;;;;5030691;28;20209;-74
2021/11/29 06:52:11;;;;;;;12.40;8.77;;;1.10;99.90;;;;;;5030300;28;20202;-74
2021/11/29 06:54:38;;;;;;;13.27;9.00;;;1.00;99.90;;;;;;5030380;28;20201;-74
2021/11/29 06:57:07;;;;;;;13.32;8.70;;;1.00;99.90;;;;;;5030519;28;20225;-74
2021/11/29 06:59:37;;;;;;;15.65;10.02;;;0.90;99.90;;;;;;5056968;22;20226;-92
2021/11/29 07:02:06;;;;;;;15.93;10.43;;;0.90;99.90;;;;;;5038223;22;20222;-68
2021/11/29 07:04:33;;;;;;;14.90;9.65;;;0.80;99.90;;;;;;5010215;28;20205;-69
2021/11/29 07:06:59;;;;;;;14.88;9.15;;;0.80;99.90;;;;;;5011010;28;20261;-69
2021/11/29 07:09:26;;;;;;;13.40;9.02;;;0.80;99.90;;;;;;5010626;28;20213;-69
2021/11/29 07:11:53;;;;;;;14.57;8.77;;;0.80;99.90;;;;;;5010499;28;20213;-69
2021/11/29 07:14:22;;;;;;;11.98;8.55;;;0.80;99.90;;;;;;5010868;28;20203;-69
2021/11/29 07:16:48;;;;;;;14.95;8.27;;;0.80;99.90;;;;;;5010507;28;20296;-69
2021/11/29 07:19:16;;;;;;;12.35;8.40;;;0.80;99.90;;;;;;5011007;28;20202;-69
2021/11/29 07:21:44;;;;;;;12.40;8.25;;;0.80;99.90;;;;;;5009940;28;20222;-68
2021/11/29 07:24:11;;;;;;;11.77;7.68;;;0.80;99.90;;;;;;5010895;28;20202;-68
2021/11/29 07:26:38;;;;;;;13.88;7.97;;;0.90;99.90;;;;;;5010369;28;20226;-68
2021/11/29 07:29:06;;;;;;;10.50;7.60;;;0.90;99.90;;;;;;5011094;28;20206;-69
2021/11/29 07:31:35;;;;;;;8.50;7.30;;;1.00;99.90;;;;;;5009943;28;20575;-68
2021/11/29 07:34:02;;;;;;;14.23;7.93;;;1.10;99.90;;;;;;5010746;28;20203;-68
2021/11/29 07:36:29;;;;;;;10.30;6.90;;;1.10;99.90;;;;;;5010142;28;20226;-69
2021/11/29 07:38:56;;;;;;;11.70;7.05;;;1.20;99.90;;;;;;5010846;28;20202;-68
2021/11/29 07:41:23;;;;;;;9.38;6.70;;;1.20;99.90;;;;;;5010095;28;20256;-68
2021/11/29 07:43:50;;;;;;;10.65;7.82;;;1.20;99.90;;;;;;5010661;28;20211;-69
2021/11/29 07:46:17;;;;;;;10.98;7.40;;;1.30;99.90;;;;;;5010661;28;20206;-69
2021/11/29 07:48:45;;;;;;;17.10;8.85;;;1.40;99.90;;;;;;5010060;28;20198;-69
2021/11/29 07:51:14;;;;;;;17.05;8.02;;;1.40;99.90;;;;;;5009837;28;20678;-69
2021/11/29 07:53:40;;;;;;;10.35;7.40;;;1.40;99.90;;;;;;5010272;28;20209;-68
2021/11/29 07:56:07;;;;;;;9.90;6.20;;;1.50;99.90;;;;;;5010438;28;20246;-68
2021/11/29 07:58:34;;;;;;;9.18;6.50;;;1.50;99.90;;;;;;5010091;28;20203;-68
2021/11/29 08:01:02;;;;;;;7.97;7.15;;;1.50;99.90;;;;;;5009918;28;20198;-69
2021/11/29 08:03:28;;;;;;;11.38;6.82;;;1.40;99.90;;;;;;5010079;28;20211;-68
2021/11/29 08:05:56;;;;;;;9.88;6.35;;;1.40;99.90;;;;;;5010474;28;20205;-69
2021/11/29 08:08:23;;;;;;;10.10;6.03;;;1.30;99.90;;;;;;5010076;28;20222;-69
2021/11/29 08:10:50;;;;;;;10.25;6.18;;;1.30;99.90;;;;;;5009899;28;20673;-68
2021/11/29 08:13:17;;;;;;;8.25;6.22;;;1.30;99.90;;;;;;5010329;28;20202;-68
2021/11/29 08:15:44;;;;;;;8.55;6.07;;;1.30;99.90;;;;;;5010288;28;20238;-69
2021/11/29 08:18:11;;;;;;;7.45;6.10;;;1.20;99.90;;;;;;5010318;28;20222;-68
2021/11/29 08:20:38;;;;;;;10.20;6.40;;;1.20;99.90;;;;;;5012286;28;20202;-68
2021/11/29 08:23:08;;;;;;;10.40;6.43;;;1.30;99.90;;;;;;5013888;28;20206;-68
2021/11/29 08:25:36;;;;;;;10.38;6.65;;;1.30;99.90;;;;;;5013634;28;20202;-68
2021/11/29 08:28:02;;;;;;;7.35;5.55;;;1.40;99.90;;;;;;5013674;28;20341;-68
2021/11/29 08:30:29;;;;;;;10.13;5.65;;;1.40;99.90;;;;;;5013523;28;20203;-69
2021/11/29 08:32:56;;;;;;;7.32;5.40;;;1.50;99.90;;;;;;5013105;28;20202;-69
2021/11/29 08:35:23;;;;;;;6.93;5.85;;;1.50;99.90;;;;;;5013530;28;20229;-68
2021/11/29 08:37:52;;;;;;;5.97;5.38;;;1.50;99.90;;;;;;5013391;28;20594;-68
2021/11/29 08:40:26;;;;;;;9.80;6.13;;;1.50;99.90;;;;;;5013606;28;20211;-68
2021/11/29 08:42:53;;;;;;;9.25;6.32;;;1.70;99.90;;;;;;5012955;28;20206;-69
2021/11/29 08:45:19;;;;;;;8.20;5.65;;;1.70;99.90;;;;;;5013520;28;20205;-69
2021/11/29 08:47:46;;;;;;;7.40;5.20;;;1.80;99.90;;;;;;5013088;28;20285;-69
2021/11/29 08:50:13;;;;;;;8.27;5.25;;;1.90;99.90;;;;;;5013394;28;20209;-69
2021/11/29 08:52:40;;;;;;;9.63;5.78;;;2.00;99.90;;;;;;5012648;28;20207;-68
2021/11/29 08:55:09;;;;;;;7.25;5.50;;;2.20;99.90;;;;;;5013405;28;20482;-69
2021/11/29 08:57:37;;;;;;;6.43;4.95;;;2.40;99.90;;;;;;5012797;28;20233;-68
2021/11/29 09:00:07;;;;;;;7.18;5.25;;;2.70;99.90;;;;;;5013308;28;20559;-68
2021/11/29 09:02:33;;;;;;;5.13;4.35;;;3.30;99.90;;;;;;5012274;28;20213;-68
2021/11/29 09:05:00;;;;;;;6.63;4.00;;;4.20;99.90;;;;;;5013239;28;20218;-68
2021/11/29 09:07:27;;;;;;;8.60;4.78;;;5.20;99.90;;;;;;5006824;28;20223;-69
2021/11/29 09:09:54;;;;;;;5.50;4.55;;;6.90;99.90;;;;;;5012203;28;20669;-69
2021/11/29 09:12:22;;;;;;;6.20;4.15;;;8.90;99.90;;;;;;5009471;28;20294;-69
2021/11/29 09:14:51;;;;;;;6.65;4.13;;;10.50;99.90;;;;;;5011880;28;20210;-69
2021/11/29 09:17:18;;;;;;;4.68;4.13;;;11.70;99.90;;;;;;5012278;28;20223;-69
2021/11/29 09:19:45;;;;;;;5.07;3.70;;;12.90;98.70;;;;;;5012002;28;20552;-69
2021/11/29 09:22:12;;;;;;;6.05;3.72;;;13.80;96.40;;;;;;5011397;28;20225;-69
2021/11/29 09:24:39;;;;;;;5.28;3.80;;;14.50;95.90;;;;;;5011998;28;20210;-69
2021/11/29 09:27:06;;;;;;;3.85;3.50;;;15.20;94.80;;;;;;5011869;28;20222;-67
2021/11/29 09:29:33;;;;;;;4.83;3.27;;;16.00;94.10;;;;;;5011364;28;20392;-68
2021/11/29 09:32:03;;;;;;;7.13;3.43;;;16.80;93.20;;;;;;5011406;28;20464;-68
2021/11/29 09:34:31;;;;;;;6.03;3.37;;;17.20;92.40;;;;;;5011572;28;21082;-69
2021/11/29 09:36:57;;;;;;;3.67;3.17;;;17.50;91.50;;;;;;5011224;28;20489;-67
2021/11/29 09:39:24;;;;;;;6.90;3.50;;;17.80;91.20;;;;;;5011772;28;20457;-68
2021/11/29 09:41:51;;;;;;;5.03;3.63;;;17.50;90.60;;;;;;5011237;28;20465;-68
2021/11/29 09:44:18;;;;;;;3.83;3.00;;;16.90;90.90;;;;;;5010069;28;20468;-67
2021/11/29 09:46:45;;;;;;;5.87;3.20;;;17.00;90.90;;;;;;4999406;28;20485;-68
2021/11/29 09:49:20;;;;;;;4.53;2.90;;;17.30;90.10;;;;;;5011631;28;20469;-67
2021/11/29 09:51:46;;;;;;;4.73;3.30;;;18.20;90.50;;;;;;5010978;28;20465;-68
2021/11/29 09:54:13;;;;;;;6.47;3.40;;;18.80;90.00;;;;;;5011027;28;20472;-68
2021/11/29 09:56:40;;;;;;;5.00;3.43;;;18.20;87.40;;;;;;5011384;28;20567;-68
2021/11/29 09:59:07;;;;;;;8.40;3.50;;;16.30;89.70;;;;;;5011739;28;20464;-68
2021/11/29 10:01:34;;;;;;;3.90;3.47;;;14.10;91.30;;;;;;5010315;28;20464;-68
2021/11/29 10:04:02;;;;;;;3.77;2.90;;;12.00;92.90;;;;;;5011191;28;20469;-68
2021/11/29 10:06:32;;;;;;;5.55;3.38;;;10.40;95.10;;;;;;5010867;28;20908;-68
2021/11/29 10:09:05;;;;;;;4.82;3.00;;;9.10;97.00;;;;;;5010762;28;20284;-68
2021/11/29 10:11:32;;;;;;;5.68;3.15;;;8.60;98.20;;;;;;5010413;28;20637;-68
2021/11/29 10:14:02;;;;;;;4.00;3.25;;;8.20;99.30;;;;;;5011107;28;20361;-68
2021/11/29 10:16:38;;;;;;;4.50;3.45;;;8.50;99.40;;;;;;5010184;28;20254;-67
2021/11/29 10:19:07;;;;;;;3.42;2.85;;;9.10;98.60;;;;;;5010960;28;20224;-68
2021/11/29 10:21:35;;;;;;;6.25;3.40;;;8.90;98.10;;;;;;5010213;28;20206;-68
2021/11/29 10:24:02;;;;;;;3.65;3.10;;;8.70;98.90;;;;;;5010455;28;20568;-70
2021/11/29 10:26:31;;;;;;;3.67;2.88;;;9.90;98.90;;;;;;5011008;28;20234;-70
2021/11/29 10:29:00;;;;;;;3.80;2.60;;;12.00;96.10;;;;;;5010884;28;20208;-69
2021/11/29 10:31:38;;;;;;;5.15;3.20;;;13.80;93.40;;;;;;5009862;28;20212;-69
2021/11/29 10:34:07;;;;;;;4.57;3.13;;;14.70;92.50;;;;;;5010382;28;20209;-69
2021/11/29 10:36:38;;;;;;;3.45;2.50;;;14.70;92.40;;;;;;5010012;28;20249;-70
2021/11/29 10:39:10;;;;;;;2.97;2.67;;;13.30;93.00;;;;;;5010524;28;20210;-69
2021/11/29 10:41:39;;;;;;;2.65;2.45;;;11.70;94.70;;;;;;5010024;28;20211;-69
2021/11/29 10:44:11;;;;;;;4.43;2.75;;;10.50;95.50;;;;;;5009733;28;20563;-69
2021/11/29 10:46:41;;;;;;;3.63;3.33;;;10.00;96.50;;;;;;5010158;28;20228;-69
2021/11/29 10:49:11;;;;;;;4.90;3.25;;;10.20;97.50;;;;;;5010430;28;20210;-70
2021/11/29 10:51:41;;;;;;;4.05;3.00;;;11.30;96.30;;;;;;5009112;28;20289;-70
2021/11/29 10:54:10;;;;;;;3.28;2.80;;;12.50;95.00;;;;;;5010253;28;20206;-69
2021/11/29 10:56:40;;;;;;;5.00;3.33;;;12.70;93.60;;;;;;5009771;28;20249;-69
2021/11/29 10:59:08;;;;;;;7.05;3.10;;;11.60;93.90;;;;;;5009950;28;20206;-69
2021/11/29 11:01:38;;;;;;;3.38;2.55;;;10.60;94.70;;;;;;5009424;28;20210;-69
2021/11/29 11:04:07;;;;;;;4.68;2.92;;;10.10;95.30;;;;;;5010113;28;20203;-69
2021/11/29 11:06:35;;;;;;;4.65;2.85;;;10.10;96.00;;;;;;5009648;28;20225;-69
2021/11/29 11:09:11;;;;;;;4.28;3.05;;;10.80;95.80;;;;;;5010096;28;20661;-69
2021/11/29 11:11:42;;;;;;;5.85;2.72;;;11.80;94.70;;;;;;5009523;28;20209;-70
2021/11/29 11:14:12;;;;;;;4.05;2.70;;;12.90;94.20;;;;;;5009669;28;20300;-70
2021/11/29 11:16:56;;;;;;;6.18;3.10;;;14.00;93.20;;;;;;5009800;28;20237;-69
2021/11/29 11:19:37;;;;;;;5.10;3.05;;;14.50;92.90;;;;;;5008800;28;20539;-69
2021/11/29 11:22:15;;;;;;;4.28;3.00;;;13.70;93.00;;;;;;5009296;28;20206;-69
2021/11/29 11:24:45;;;;;;;4.07;2.80;;;12.70;93.10;;;;;;5009814;28;20202;-69
2021/11/29 11:27:12;;;;;;;4.50;2.65;;;11.30;94.20;;;;;;5006449;28;20224;-70
2021/11/29 11:29:48;;;;;;;4.18;2.22;;;10.10;95.50;;;;;;5009151;28;20688;-70
2021/11/29 11:32:18;;;;;;;7.50;3.10;;;8.90;97.00;;;;;;5008806;28;20670;-69
2021/11/29 11:34:47;;;;;;;3.17;2.33;;;7.80;98.50;;;;;;5009417;28;20202;-70
2021/11/29 11:37:16;;;;;;;3.75;2.97;;;7.00;99.50;;;;;;5008601;28;20233;-70
2021/11/29 11:39:45;;;;;;;5.07;2.83;;;6.30;99.90;;;;;;5009259;28;20213;-69
2021/11/29 11:42:12;;;;;;;5.75;3.17;;;5.90;99.90;;;;;;5008886;28;20208;-69
2021/11/29 11:44:40;;;;;;;7.07;3.25;;;5.60;99.90;;;;;;5009048;28;20207;-70
2021/11/29 11:47:08;;;;;;;8.90;3.78;;;5.20;99.90;;;;;;5009172;28;20218;-69
2021/11/29 11:49:37;;;;;;;4.55;2.85;;;5.20;99.90;;;;;;5008806;28;20577;-70
2021/11/29 11:52:09;;;;;;;5.85;3.00;;;5.00;99.90;;;;;;5009032;28;20301;-69
2021/11/29 11:54:40;;;;;;;3.47;3.03;;;5.00;99.90;;;;;;5009800;28;20831;-70
2021/11/29 11:57:09;;;;;;;8.90;3.58;;;5.30;99.90;;;;;;5013105;28;20605;-69
2021/11/29 11:59:50;;;;;;;2.60;2.40;;;5.80;99.90;;;;;;5012732;28;20214;-69
2021/11/29 12:02:21;;;;;;;4.70;2.95;;;6.50;99.90;;;;;;5012426;28;20207;-68
2021/11/29 12:05:14;;;;;;;2.92;2.60;;;7.20;99.90;;;;;;5013262;28;20206;-70
2021/11/29 12:07:40;;;;;;;5.65;2.83;;;7.20;99.90;;;;;;5011869;28;20281;-69
2021/11/29 12:10:49;;;;;;;4.10;3.03;;;6.70;99.90;;;;;;5013439;28;20749;-69
2021/11/29 12:13:20;;;;;;;4.55;2.85;;;6.30;99.90;;;;;;4976124;28;20333;-69
2021/11/29 12:15:49;;;;;;;3.58;2.47;;;5.70;99.90;;;;;;5012910;28;20256;-68
2021/11/29 12:18:53;;;;;;;4.85;2.60;;;5.30;99.90;;;;;;5012037;28;20321;-69
2021/11/29 12:21:22;;;;;;;3.72;2.90;;;5.10;99.90;;;;;;4999169;28;20688;-69
2021/11/29 12:23:52;;;;;;;4.82;2.70;;;4.90;99.90;;;;;;5012391;28;20206;-69
2021/11/29 12:26:39;;;;;;;2.65;2.45;;;4.70;99.90;;;;;;5012639;28;20213;-69
2021/11/29 12:29:07;;;;;;;7.55;3.00;;;4.60;99.90;;;;;;5011827;28;20209;-68
2021/11/29 12:31:37;;;;;;;4.47;2.80;;;4.50;99.90;;;;;;5011887;28;20198;-68
2021/11/29 12:34:08;;;;;;;4.85;2.97;;;4.40;99.90;;;;;;5012907;28;20306;-68
2021/11/29 12:37:13;;;;;;;3.83;3.00;;;4.30;99.90;;;;;;5011602;28;20752;-68
2021/11/29 12:39:54;;;;;;;3.72;3.05;;;4.10;99.90;;;;;;5012155;28;20684;-68
2021/11/29 12:42:57;;;;;;;3.67;2.55;;;4.00;99.90;;;;;;5011953;28;20210;-68
2021/11/29 12:45:29;;;;;;;4.95;3.20;;;3.90;99.90;;;;;;5012637;28;20645;-68
2021/11/29 12:48:00;;;;;;;4.75;3.25;;;3.80;99.90;;;;;;5012284;28;20214;-69
2021/11/29 12:50:48;;;;;;;3.97;2.80;;;3.90;99.90;;;;;;5012500;28;20256;-68
2021/11/29 12:53:20;;;;;;;5.78;3.35;;;3.90;99.90;;;;;;5012114;28;20294;-68
2021/11/29 12:55:49;;;;;;;3.65;3.00;;;4.10;99.90;;;;;;5012359;28;20205;-69